createdAt,value
2018-10-17T00:00:09.598Z,99.90
2018-10-17T00:02:38.044Z,99.90
2018-10-17T00:05:07.341Z,99.90
2018-10-17T00:07:35.730Z,99.90
2018-10-17T00:10:04.516Z,99.90
2018-10-17T00:12:32.920Z,99.90
2018-10-17T00:15:01.358Z,99.90
2018-10-17T00:17:29.802Z,99.90
2018-10-17T00:19:58.274Z,99.90
2018-10-17T00:22:26.701Z,99.90
2018-10-17T00:24:55.129Z,99.90
2018-10-17T00:27:23.557Z,99.90
2018-10-17T00:29:51.990Z,99.90
2018-10-17T00:32:20.401Z,99.90
2018-10-17T00:34:48.852Z,99.90
2018-10-17T00:37:17.435Z,99.90
2018-10-17T00:39:45.823Z,99.90
2018-10-17T00:42:14.243Z,99.90
2018-10-17T00:44:42.666Z,99.90
2018-10-17T00:47:11.115Z,99.90
2018-10-17T00:49:39.575Z,99.90
2018-10-17T00:52:07.988Z,99.90
2018-10-17T00:54:36.416Z,99.90
2018-10-17T00:57:04.872Z,99.90
2018-10-17T00:59:33.288Z,99.90
2018-10-17T01:02:01.700Z,99.90
2018-10-17T01:04:30.153Z,99.90
2018-10-17T01:06:58.662Z,99.90
2018-10-17T01:09:27.088Z,99.90
2018-10-17T01:11:55.505Z,99.90
2018-10-17T01:14:23.931Z,99.90
2018-10-17T01:16:52.418Z,99.90
2018-10-17T01:19:20.845Z,99.90
2018-10-17T01:21:49.289Z,99.90
2018-10-17T01:24:17.729Z,99.90
2018-10-17T01:26:46.155Z,99.90
2018-10-17T01:29:14.614Z,99.90
2018-10-17T01:31:43.009Z,99.90
2018-10-17T01:34:11.438Z,99.90
2018-10-17T01:36:39.898Z,99.90
2018-10-17T01:39:09.547Z,99.90
2018-10-17T01:41:37.992Z,99.90
2018-10-17T01:44:07.251Z,99.90
2018-10-17T01:46:35.798Z,99.90
2018-10-17T01:49:04.344Z,99.90
2018-10-17T01:51:32.770Z,99.90
2018-10-17T01:54:01.216Z,99.90
2018-10-17T01:56:29.682Z,99.90
2018-10-17T01:58:58.154Z,99.90
2018-10-17T02:01:26.699Z,99.90
2018-10-17T02:03:55.121Z,99.90
2018-10-17T02:06:23.594Z,99.90
2018-10-17T02:08:51.993Z,99.90
2018-10-17T02:11:20.409Z,99.90
2018-10-17T02:13:48.833Z,99.90
2018-10-17T02:16:17.274Z,99.90
2018-10-17T02:18:45.744Z,99.90
2018-10-17T02:21:14.168Z,99.90
2018-10-17T02:23:42.577Z,99.90
2018-10-17T02:26:11.060Z,99.90
2018-10-17T02:28:39.508Z,99.90
2018-10-17T02:31:08.035Z,99.90
2018-10-17T02:33:36.392Z,99.90
2018-10-17T02:36:05.222Z,99.90
2018-10-17T02:38:33.713Z,99.90
2018-10-17T02:41:02.233Z,99.90
2018-10-17T02:43:30.627Z,99.90
2018-10-17T02:45:59.091Z,99.90
2018-10-17T02:48:27.516Z,99.90
2018-10-17T02:50:55.969Z,99.90
2018-10-17T02:53:24.429Z,99.90
2018-10-17T02:55:52.869Z,99.90
2018-10-17T02:58:21.293Z,99.90
2018-10-17T03:00:49.737Z,99.90
2018-10-17T03:03:18.210Z,99.90
2018-10-17T03:05:46.656Z,99.90
2018-10-17T03:08:15.072Z,99.90
2018-10-17T03:10:43.547Z,99.90
2018-10-17T03:13:12.028Z,99.90
2018-10-17T03:15:40.417Z,99.90
2018-10-17T03:18:08.885Z,99.90
2018-10-17T03:20:37.414Z,99.90
2018-10-17T03:23:06.445Z,99.90
2018-10-17T03:25:34.837Z,99.90
2018-10-17T03:28:03.320Z,99.90
2018-10-17T03:30:31.758Z,99.90
2018-10-17T03:33:00.183Z,99.90
2018-10-17T03:35:28.618Z,99.90
2018-10-17T03:37:57.067Z,99.90
2018-10-17T03:40:25.510Z,99.90
2018-10-17T03:42:53.966Z,99.90
2018-10-17T03:45:22.407Z,99.90
2018-10-17T03:47:50.884Z,99.90
2018-10-17T03:50:19.331Z,99.90
2018-10-17T03:52:47.762Z,99.90
2018-10-17T03:55:16.385Z,99.90
2018-10-17T03:57:44.741Z,99.90
2018-10-17T04:00:13.229Z,99.90
2018-10-17T04:02:41.660Z,99.90
2018-10-17T04:05:10.154Z,99.90
2018-10-17T04:07:38.547Z,99.90
2018-10-17T04:10:07.063Z,99.90
2018-10-17T04:12:35.503Z,99.90
2018-10-17T04:15:04.002Z,99.90
2018-10-17T04:17:32.427Z,99.90
2018-10-17T04:20:00.870Z,99.90
2018-10-17T04:22:29.358Z,99.90
2018-10-17T04:24:57.790Z,99.90
2018-10-17T04:27:26.256Z,99.90
2018-10-17T04:29:54.676Z,99.90
2018-10-17T04:32:23.126Z,99.90
2018-10-17T04:34:51.594Z,99.90
2018-10-17T04:37:19.991Z,99.90
2018-10-17T04:39:48.432Z,99.90
2018-10-17T04:42:16.855Z,99.90
2018-10-17T04:44:45.336Z,99.90
2018-10-17T04:47:13.876Z,99.90
2018-10-17T04:49:42.282Z,99.90
2018-10-17T04:52:10.699Z,99.90
2018-10-17T04:54:39.181Z,99.90
2018-10-17T04:57:07.613Z,99.90
2018-10-17T04:59:36.079Z,99.90
2018-10-17T05:02:04.612Z,99.90
2018-10-17T05:04:33.125Z,99.90
2018-10-17T05:07:01.566Z,99.90
2018-10-17T05:09:30.012Z,99.90
2018-10-17T05:11:58.716Z,99.90
2018-10-17T05:14:27.155Z,99.90
2018-10-17T05:16:55.613Z,99.90
2018-10-17T05:19:24.069Z,99.90
2018-10-17T05:21:52.512Z,99.90
2018-10-17T05:24:20.996Z,99.90
2018-10-17T05:26:49.517Z,99.90
2018-10-17T05:29:18.027Z,99.90
2018-10-17T05:31:46.469Z,99.90
2018-10-17T05:34:14.889Z,99.90
2018-10-17T05:36:43.337Z,99.90
2018-10-17T05:39:11.866Z,99.90
2018-10-17T05:41:40.295Z,99.90
2018-10-17T05:44:08.738Z,99.90
2018-10-17T05:46:37.195Z,99.90
2018-10-17T05:49:06.303Z,99.90
2018-10-17T05:51:34.747Z,99.90
2018-10-17T05:54:03.206Z,99.90
2018-10-17T05:56:31.673Z,99.90
2018-10-17T05:59:00.163Z,99.90
2018-10-17T06:01:28.640Z,99.90
2018-10-17T06:04:22.194Z,99.90
2018-10-17T06:06:50.756Z,99.90
2018-10-17T06:09:19.182Z,99.90
2018-10-17T06:11:47.660Z,99.90
2018-10-17T06:14:17.254Z,99.90
2018-10-17T06:16:46.403Z,99.90
2018-10-17T06:19:15.023Z,99.90
2018-10-17T06:21:43.384Z,99.90
2018-10-17T06:24:11.848Z,99.90
2018-10-17T06:26:40.303Z,99.90
2018-10-17T06:29:08.843Z,99.90
2018-10-17T06:31:37.385Z,99.90
2018-10-17T06:34:06.095Z,99.90
2018-10-17T06:36:34.552Z,99.90
2018-10-17T06:39:03.162Z,99.90
2018-10-17T06:41:31.639Z,99.90
2018-10-17T06:44:00.149Z,99.90
2018-10-17T06:46:28.832Z,99.90
2018-10-17T06:48:57.290Z,99.90
2018-10-17T06:51:25.769Z,99.90
2018-10-17T06:53:54.244Z,99.90
2018-10-17T06:56:22.700Z,99.90
2018-10-17T06:58:51.153Z,99.90
2018-10-17T07:01:19.612Z,99.90
2018-10-17T07:03:48.053Z,99.90
2018-10-17T07:06:16.502Z,99.90
2018-10-17T07:08:45.045Z,99.90
2018-10-17T07:11:13.601Z,99.90
2018-10-17T07:13:41.946Z,99.90
2018-10-17T07:16:10.418Z,99.90
2018-10-17T07:18:39.856Z,99.90
2018-10-17T07:21:08.304Z,99.90
2018-10-17T07:23:36.718Z,99.90
2018-10-17T07:26:05.240Z,99.90
2018-10-17T07:28:33.832Z,99.90
2018-10-17T07:31:02.318Z,99.90
2018-10-17T07:33:30.734Z,99.90
2018-10-17T07:35:59.193Z,99.90
2018-10-17T07:38:27.668Z,99.90
2018-10-17T07:40:56.136Z,99.90
2018-10-17T07:43:24.561Z,99.90
2018-10-17T07:45:53.016Z,99.90
2018-10-17T07:48:21.460Z,99.90
2018-10-17T07:50:49.883Z,99.90
2018-10-17T07:53:18.326Z,99.90
2018-10-17T07:55:46.787Z,99.90
2018-10-17T07:58:15.219Z,99.90
2018-10-17T08:00:43.776Z,99.90
2018-10-17T08:03:12.227Z,99.90
2018-10-17T08:05:40.673Z,99.90
2018-10-17T08:08:09.174Z,99.90
2018-10-17T08:10:37.632Z,99.90
2018-10-17T08:13:06.402Z,99.90
2018-10-17T08:15:34.834Z,99.90
2018-10-17T08:18:03.284Z,99.90
2018-10-17T08:20:31.718Z,99.90
2018-10-17T08:23:00.162Z,99.90
2018-10-17T08:25:28.584Z,99.90
2018-10-17T08:27:57.028Z,99.90
2018-10-17T08:30:25.481Z,99.90
2018-10-17T08:32:53.929Z,99.90
2018-10-17T08:35:22.410Z,99.90
2018-10-17T08:37:51.152Z,99.90
2018-10-17T08:40:19.257Z,99.90
2018-10-17T08:42:47.664Z,99.90
2018-10-17T08:45:16.154Z,99.90
2018-10-17T08:47:44.579Z,99.90
2018-10-17T08:50:13.073Z,99.90
2018-10-17T08:52:41.519Z,99.30
2018-10-17T08:55:10.003Z,98.50
2018-10-17T08:57:38.470Z,98.00
2018-10-17T09:00:07.798Z,97.40
2018-10-17T09:02:36.255Z,97.40
2018-10-17T09:05:04.768Z,97.00
2018-10-17T09:07:33.299Z,94.80
2018-10-17T09:10:01.680Z,91.60
2018-10-17T09:12:30.133Z,88.80
2018-10-17T09:14:58.604Z,87.90
2018-10-17T09:17:27.074Z,88.80
2018-10-17T09:19:55.766Z,90.30
2018-10-17T09:22:24.230Z,91.20
2018-10-17T09:24:52.396Z,92.60
2018-10-17T09:27:20.831Z,93.30
2018-10-17T09:29:49.262Z,92.40
2018-10-17T09:32:17.714Z,92.90
2018-10-17T09:34:46.217Z,94.30
2018-10-17T09:37:14.678Z,94.40
2018-10-17T09:39:43.155Z,95.00
2018-10-17T09:42:11.686Z,96.30
2018-10-17T09:44:40.120Z,97.00
2018-10-17T09:47:08.595Z,97.20
2018-10-17T09:49:36.997Z,97.00
2018-10-17T09:52:06.000Z,95.90
2018-10-17T09:54:34.312Z,94.50
2018-10-17T09:57:02.751Z,94.20
2018-10-17T09:59:31.203Z,94.80
2018-10-17T10:01:59.685Z,94.20
2018-10-17T10:04:28.124Z,93.90
2018-10-17T10:06:56.602Z,94.50
2018-10-17T10:09:25.029Z,94.90
2018-10-17T10:11:53.477Z,94.20
2018-10-17T10:14:21.973Z,95.50
2018-10-17T10:16:50.457Z,96.70
2018-10-17T10:19:18.883Z,96.60
2018-10-17T10:21:47.503Z,95.00
2018-10-17T10:24:16.120Z,91.00
2018-10-17T10:26:44.505Z,82.10
2018-10-17T10:29:12.940Z,74.30
2018-10-17T10:31:41.360Z,69.20
2018-10-17T10:34:09.808Z,65.10
2018-10-17T10:36:38.243Z,62.40
2018-10-17T10:39:09.729Z,59.80
2018-10-17T10:41:38.191Z,60.50
2018-10-17T10:44:07.261Z,64.40
2018-10-17T10:46:35.770Z,68.30
2018-10-17T10:49:04.517Z,70.90
2018-10-17T10:51:32.995Z,75.20
2018-10-17T10:54:01.502Z,80.30
2018-10-17T10:56:29.956Z,74.50
2018-10-17T10:58:58.465Z,68.20
2018-10-17T11:01:26.881Z,64.00
2018-10-17T11:03:55.312Z,58.50
2018-10-17T11:06:23.743Z,55.90
2018-10-17T11:08:52.180Z,56.80
2018-10-17T11:11:20.652Z,55.60
2018-10-17T11:13:49.113Z,54.40
2018-10-17T11:16:17.561Z,54.30
2018-10-17T11:18:46.002Z,52.60
2018-10-17T11:21:14.538Z,52.50
2018-10-17T11:23:42.951Z,51.30
2018-10-17T11:26:11.422Z,52.10
2018-10-17T11:28:39.941Z,51.80
2018-10-17T11:31:08.507Z,49.50
2018-10-17T11:33:37.079Z,48.80
2018-10-17T11:36:05.542Z,47.10
2018-10-17T11:38:34.007Z,45.50
2018-10-17T11:41:02.495Z,44.50
2018-10-17T11:43:30.915Z,43.10
2018-10-17T11:45:59.396Z,43.60
2018-10-17T11:48:27.876Z,43.60
2018-10-17T11:50:56.381Z,43.40
2018-10-17T11:53:24.848Z,43.60
2018-10-17T11:55:53.410Z,46.10
2018-10-17T11:58:21.852Z,46.70
2018-10-17T12:00:50.318Z,50.00
2018-10-17T12:03:18.765Z,55.80
2018-10-17T12:05:47.308Z,62.30
2018-10-17T12:08:15.641Z,66.50
2018-10-17T12:10:44.130Z,69.40
2018-10-17T12:13:12.612Z,70.20
2018-10-17T12:15:43.725Z,72.90
2018-10-17T12:18:12.648Z,74.20
2018-10-17T12:20:41.139Z,74.50
2018-10-17T12:23:09.617Z,76.60
2018-10-17T12:25:38.081Z,77.50
2018-10-17T12:28:06.712Z,78.00
2018-10-17T12:30:35.123Z,78.00
2018-10-17T12:33:03.629Z,70.50
2018-10-17T12:35:32.086Z,68.00
2018-10-17T12:38:00.553Z,66.40
2018-10-17T12:40:29.122Z,62.50
2018-10-17T12:42:57.512Z,61.10
2018-10-17T12:45:25.967Z,64.00
2018-10-17T12:47:54.413Z,64.60
2018-10-17T12:50:23.243Z,66.50
2018-10-17T12:52:51.682Z,67.90
2018-10-17T12:55:20.085Z,68.90
2018-10-17T12:57:48.529Z,71.50
2018-10-17T13:00:16.978Z,73.40
2018-10-17T13:02:45.403Z,74.70
2018-10-17T13:05:13.925Z,76.10
2018-10-17T13:07:42.350Z,76.80
2018-10-17T13:10:11.702Z,76.80
2018-10-17T13:12:40.608Z,78.40
2018-10-17T13:15:10.237Z,79.10
2018-10-17T13:17:38.578Z,80.50
2018-10-17T13:20:07.107Z,81.10
2018-10-17T13:22:35.569Z,81.20
2018-10-17T13:25:04.141Z,79.80
2018-10-17T13:27:32.564Z,74.20
2018-10-17T13:30:01.103Z,69.30
2018-10-17T13:32:29.550Z,68.70
2018-10-17T13:34:58.032Z,70.80
2018-10-17T13:37:26.476Z,70.60
2018-10-17T13:39:54.931Z,71.60
2018-10-17T13:42:23.437Z,72.50
2018-10-17T13:44:51.888Z,71.20
2018-10-17T13:47:20.400Z,70.90
2018-10-17T13:49:48.820Z,73.40
2018-10-17T13:52:17.235Z,76.00
2018-10-17T13:54:45.783Z,75.90
2018-10-17T13:57:14.167Z,72.50
2018-10-17T13:59:42.694Z,65.40
2018-10-17T14:02:11.147Z,60.10
2018-10-17T14:04:39.613Z,56.90
2018-10-17T14:07:08.237Z,55.10
2018-10-17T14:09:36.717Z,53.60
2018-10-17T14:12:05.851Z,52.30
2018-10-17T14:14:34.316Z,51.50
2018-10-17T14:17:02.777Z,51.00
2018-10-17T14:19:31.195Z,51.00
2018-10-17T14:21:59.655Z,50.60
2018-10-17T14:24:29.053Z,54.60
2018-10-17T14:26:57.596Z,58.90
2018-10-17T14:29:26.055Z,63.90
2018-10-17T14:31:54.597Z,67.50
2018-10-17T14:34:23.050Z,71.00
2018-10-17T14:36:51.498Z,69.30
2018-10-17T14:39:20.056Z,65.30
2018-10-17T14:41:48.438Z,62.30
2018-10-17T14:44:16.834Z,61.50
2018-10-17T14:46:45.324Z,60.60
2018-10-17T14:49:13.748Z,60.90
2018-10-17T14:51:42.238Z,61.60
2018-10-17T14:54:12.076Z,62.50
2018-10-17T14:56:40.730Z,62.10
2018-10-17T14:59:09.346Z,61.60
2018-10-17T15:01:37.733Z,60.90
2018-10-17T15:04:06.239Z,60.10
2018-10-17T15:06:34.710Z,60.60
2018-10-17T15:09:04.312Z,62.90
2018-10-17T15:11:32.834Z,64.50
2018-10-17T15:14:01.246Z,67.90
2018-10-17T15:16:29.776Z,70.30
2018-10-17T15:18:58.306Z,72.30
2018-10-17T15:21:26.761Z,73.90
2018-10-17T15:23:55.219Z,75.80
2018-10-17T15:26:23.682Z,76.90
2018-10-17T15:28:52.134Z,77.60
2018-10-17T15:31:20.700Z,79.40
2018-10-17T15:33:49.090Z,79.80
2018-10-17T15:36:17.621Z,81.10
2018-10-17T15:38:46.015Z,81.50
2018-10-17T15:41:14.462Z,83.20
2018-10-17T15:43:43.067Z,84.50
2018-10-17T15:46:11.576Z,85.80
2018-10-17T15:48:40.061Z,86.50
2018-10-17T15:51:08.547Z,87.20
2018-10-17T15:53:37.035Z,87.80
2018-10-17T15:56:05.539Z,88.80
2018-10-17T15:58:34.043Z,90.10
2018-10-17T16:01:02.647Z,90.70
2018-10-17T16:03:31.061Z,91.10
2018-10-17T16:05:59.634Z,91.40
2018-10-17T16:08:28.074Z,91.80
2018-10-17T16:10:56.866Z,92.30
2018-10-17T16:13:25.449Z,92.60
2018-10-17T16:15:53.922Z,93.00
2018-10-17T16:18:22.427Z,93.50
2018-10-17T16:20:50.893Z,93.90
2018-10-17T16:23:19.449Z,94.80
2018-10-17T16:25:47.888Z,95.50
2018-10-17T16:28:16.445Z,95.70
2018-10-17T16:30:44.937Z,95.90
2018-10-17T16:33:13.414Z,96.10
2018-10-17T16:35:42.015Z,96.50
2018-10-17T16:38:10.545Z,96.80
2018-10-17T16:40:38.956Z,97.20
2018-10-17T16:43:07.444Z,97.60
2018-10-17T16:45:35.920Z,97.90
2018-10-17T16:48:04.628Z,98.10
2018-10-17T16:50:33.193Z,98.60
2018-10-17T16:53:01.530Z,98.90
2018-10-17T16:55:30.921Z,99.20
2018-10-17T16:57:59.487Z,99.50
2018-10-17T17:00:27.969Z,99.70
2018-10-17T17:02:56.465Z,99.90
2018-10-17T17:05:24.914Z,99.90
2018-10-17T17:07:53.397Z,99.90
2018-10-17T17:10:21.860Z,99.90
2018-10-17T17:12:50.315Z,99.90
2018-10-17T17:15:18.827Z,99.90
2018-10-17T17:17:47.211Z,99.90
2018-10-17T17:20:15.661Z,99.90
2018-10-17T17:22:44.173Z,99.90
2018-10-17T17:25:12.619Z,99.90
2018-10-17T17:27:41.133Z,99.90
2018-10-17T17:30:14.970Z,99.90
2018-10-17T17:32:43.419Z,99.90
2018-10-17T17:35:11.855Z,99.90
2018-10-17T17:37:40.336Z,99.90
2018-10-17T17:40:10.110Z,99.90
2018-10-17T17:42:38.628Z,99.90
2018-10-17T17:45:07.624Z,99.90
2018-10-17T17:47:36.101Z,99.90
2018-10-17T17:50:04.726Z,99.90
2018-10-17T17:52:33.153Z,99.90
2018-10-17T17:55:01.665Z,99.90
2018-10-17T17:57:30.141Z,99.90
2018-10-17T17:59:58.814Z,99.90
2018-10-17T18:02:27.286Z,99.90
2018-10-17T18:04:55.737Z,99.90
2018-10-17T18:07:24.212Z,99.90
2018-10-17T18:09:52.691Z,99.90
2018-10-17T18:12:21.185Z,99.90
2018-10-17T18:14:49.705Z,99.90
2018-10-17T18:17:18.245Z,99.90
2018-10-17T18:19:47.648Z,99.90
2018-10-17T18:22:16.193Z,99.90
2018-10-17T18:24:44.646Z,99.90
2018-10-17T18:27:13.151Z,99.90
2018-10-17T18:29:41.656Z,99.90
2018-10-17T18:32:10.145Z,99.90
2018-10-17T18:34:38.606Z,99.90
2018-10-17T18:37:07.334Z,99.90
2018-10-17T18:39:35.812Z,99.90
2018-10-17T18:42:04.623Z,99.90
2018-10-17T18:44:33.108Z,99.90
2018-10-17T18:47:01.661Z,99.90
2018-10-17T18:49:30.133Z,99.90
2018-10-17T18:51:58.638Z,99.90
2018-10-17T18:54:27.141Z,99.90
2018-10-17T18:56:55.662Z,99.90
2018-10-17T18:59:24.135Z,99.90
2018-10-17T19:01:52.587Z,99.90
2018-10-17T19:04:21.056Z,99.90
2018-10-17T19:06:49.509Z,99.90
2018-10-17T19:09:17.991Z,99.90
2018-10-17T19:11:47.010Z,99.90
2018-10-17T19:14:15.459Z,99.90
2018-10-17T19:16:43.955Z,99.90
2018-10-17T19:19:12.439Z,99.90
2018-10-17T19:21:40.964Z,99.90
2018-10-17T19:24:09.457Z,99.90
2018-10-17T19:26:37.938Z,99.90
2018-10-17T19:29:06.503Z,99.90
2018-10-17T19:31:34.953Z,99.90
2018-10-17T19:34:03.422Z,99.90
2018-10-17T19:36:31.886Z,99.90
2018-10-17T19:39:00.391Z,99.90
2018-10-17T19:41:28.796Z,99.90
2018-10-17T19:43:57.243Z,99.90
2018-10-17T19:46:25.701Z,99.90
2018-10-17T19:48:54.134Z,99.90
2018-10-17T19:51:22.594Z,99.90
2018-10-17T19:53:51.005Z,99.90
2018-10-17T19:56:19.448Z,99.90
2018-10-17T19:58:47.903Z,99.90
2018-10-17T20:01:16.356Z,99.90
2018-10-17T20:03:44.867Z,99.90
2018-10-17T20:06:13.331Z,99.90
2018-10-17T20:08:41.759Z,99.90
2018-10-17T20:11:10.222Z,99.90
2018-10-17T20:13:38.652Z,99.90
2018-10-17T20:16:07.116Z,99.90
2018-10-17T20:18:35.558Z,99.90
2018-10-17T20:21:04.033Z,99.90
2018-10-17T20:23:32.481Z,99.90
2018-10-17T20:26:00.912Z,99.90
2018-10-17T20:28:29.370Z,99.90
2018-10-17T20:30:57.962Z,99.90
2018-10-17T20:33:26.407Z,99.90
2018-10-17T20:35:54.866Z,99.90
2018-10-17T20:38:23.389Z,99.90
2018-10-17T20:40:52.145Z,99.90
2018-10-17T20:43:20.688Z,99.90
2018-10-17T20:45:49.204Z,99.90
2018-10-17T20:48:17.695Z,99.90
2018-10-17T20:50:46.291Z,99.90
2018-10-17T20:53:14.803Z,99.90
2018-10-17T20:55:43.418Z,99.90
2018-10-17T20:58:11.984Z,99.90
2018-10-17T21:00:40.539Z,99.90
2018-10-17T21:03:09.081Z,99.90
2018-10-17T21:05:37.654Z,99.90
2018-10-17T21:08:06.211Z,99.90
2018-10-17T21:10:34.659Z,99.90
2018-10-17T21:13:03.105Z,99.90
2018-10-17T21:15:31.567Z,99.90
2018-10-17T21:18:00.024Z,99.90
2018-10-17T21:20:28.494Z,99.90
2018-10-17T21:22:56.929Z,99.90
2018-10-17T21:25:25.359Z,99.90
2018-10-17T21:27:53.799Z,99.90
2018-10-17T21:30:22.251Z,99.90
2018-10-17T21:32:50.737Z,99.90
2018-10-17T21:35:19.157Z,99.90
2018-10-17T21:37:47.637Z,99.90
2018-10-17T21:40:16.097Z,99.90
2018-10-17T21:42:44.542Z,99.90
2018-10-17T21:45:12.990Z,99.90
2018-10-17T21:47:41.488Z,99.90
2018-10-17T21:50:09.998Z,99.90
2018-10-17T21:52:38.368Z,99.90
2018-10-17T21:55:06.830Z,99.90
2018-10-17T21:57:35.305Z,99.90
2018-10-17T22:00:05.283Z,99.90
2018-10-17T22:02:33.758Z,99.90
2018-10-17T22:05:02.214Z,99.90
2018-10-17T22:07:30.690Z,99.90
2018-10-17T22:09:59.176Z,99.90
2018-10-17T22:12:27.643Z,99.90
2018-10-17T22:14:56.078Z,99.90
2018-10-17T22:17:30.259Z,99.90
2018-10-17T22:19:59.323Z,99.90
2018-10-17T22:22:27.870Z,99.90
2018-10-17T22:24:56.892Z,99.90
2018-10-17T22:27:25.322Z,99.90
2018-10-17T22:29:54.114Z,99.90
2018-10-17T22:32:22.606Z,99.90
2018-10-17T22:34:51.043Z,99.90
2018-10-17T22:37:19.513Z,99.90
2018-10-17T22:39:47.954Z,99.90
2018-10-17T22:42:16.423Z,99.90
2018-10-17T22:44:44.867Z,99.90
2018-10-17T22:47:13.493Z,99.90
2018-10-17T22:49:41.968Z,99.90
2018-10-17T22:52:10.410Z,99.90
2018-10-17T22:54:38.841Z,99.90
2018-10-17T22:57:07.275Z,99.90
2018-10-17T22:59:35.709Z,99.90
2018-10-17T23:02:04.303Z,99.90
2018-10-17T23:04:32.744Z,99.90
2018-10-17T23:07:01.236Z,99.90
2018-10-17T23:09:29.718Z,99.90
2018-10-17T23:11:58.264Z,99.90
2018-10-17T23:14:27.017Z,99.90
2018-10-17T23:16:55.483Z,99.90
2018-10-17T23:19:23.932Z,99.90
2018-10-17T23:21:52.403Z,99.90
2018-10-17T23:24:20.836Z,99.90
2018-10-17T23:26:49.343Z,99.90
2018-10-17T23:29:17.775Z,99.90
2018-10-17T23:31:46.205Z,99.90
2018-10-17T23:34:14.753Z,99.90
2018-10-17T23:36:43.207Z,99.90
2018-10-17T23:39:11.664Z,99.90
2018-10-17T23:41:40.708Z,99.90
2018-10-17T23:44:09.307Z,99.90
2018-10-17T23:46:37.684Z,99.90
2018-10-17T23:49:06.184Z,99.90
2018-10-17T23:51:34.624Z,99.90
2018-10-17T23:54:03.120Z,99.90
2018-10-17T23:56:31.608Z,99.90
2018-10-17T23:59:00.114Z,99.90
